sensor_id;sensor_type;location;lat;lon;timestamp;P1;durP1;ratioP1;P2;durP2;ratioP2
5555;SDS011;2801;50.972;7.856;2023-02-04T00:01:22;13.33;;;3.43;;
5555;SDS011;2801;50.972;7.856;2023-02-04T00:03:49;15.43;;;3.47;;
5555;SDS011;2801;50.972;7.856;2023-02-04T00:06:17;16.53;;;3.63;;
5555;SDS011;2801;50.972;7.856;2023-02-04T00:08:44;17.67;;;4.30;;
5555;SDS011;2801;50.972;7.856;2023-02-04T00:11:11;13.13;;;3.73;;
5555;SDS011;2801;50.972;7.856;2023-02-04T00:13:38;18.13;;;4.67;;
5555;SDS011;2801;50.972;7.856;2023-02-04T00:16:05;19.43;;;3.43;;
5555;SDS011;2801;50.972;7.856;2023-02-04T00:18:32;15.83;;;3.50;;
5555;SDS011;2801;50.972;7.856;2023-02-04T00:20:58;8.73;;;2.77;;
5555;SDS011;2801;50.972;7.856;2023-02-04T00:23:25;21.53;;;3.80;;
5555;SDS011;2801;50.972;7.856;2023-02-04T00:25:52;13.67;;;3.40;;
5555;SDS011;2801;50.972;7.856;2023-02-04T00:28:19;12.90;;;3.40;;
5555;SDS011;2801;50.972;7.856;2023-02-04T00:30:46;17.53;;;3.67;;
5555;SDS011;2801;50.972;7.856;2023-02-04T00:33:12;19.00;;;3.37;;
5555;SDS011;2801;50.972;7.856;2023-02-04T00:35:39;18.07;;;4.00;;
5555;SDS011;2801;50.972;7.856;2023-02-04T00:38:06;14.27;;;3.20;;
5555;SDS011;2801;50.972;7.856;2023-02-04T00:40:33;11.40;;;3.07;;
5555;SDS011;2801;50.972;7.856;2023-02-04T00:43:00;12.43;;;3.50;;
5555;SDS011;2801;50.972;7.856;2023-02-04T00:45:26;16.57;;;3.70;;
5555;SDS011;2801;50.972;7.856;2023-02-04T00:47:53;18.30;;;3.87;;
5555;SDS011;2801;50.972;7.856;2023-02-04T00:50:20;21.17;;;3.73;;
5555;SDS011;2801;50.972;7.856;2023-02-04T00:52:47;13.13;;;3.63;;
5555;SDS011;2801;50.972;7.856;2023-02-04T00:55:13;16.07;;;3.03;;
5555;SDS011;2801;50.972;7.856;2023-02-04T00:57:42;20.57;;;4.40;;
5555;SDS011;2801;50.972;7.856;2023-02-04T01:00:13;19.07;;;3.67;;
5555;SDS011;2801;50.972;7.856;2023-02-04T01:02:41;14.20;;;3.57;;
5555;SDS011;2801;50.972;7.856;2023-02-04T01:05:08;20.77;;;3.60;;
5555;SDS011;2801;50.972;7.856;2023-02-04T01:07:35;18.80;;;3.50;;
5555;SDS011;2801;50.972;7.856;2023-02-04T01:10:02;15.70;;;3.40;;
5555;SDS011;2801;50.972;7.856;2023-02-04T01:12:29;17.53;;;3.27;;
5555;SDS011;2801;50.972;7.856;2023-02-04T01:14:57;10.50;;;2.87;;
5555;SDS011;2801;50.972;7.856;2023-02-04T01:17:23;17.67;;;3.50;;
5555;SDS011;2801;50.972;7.856;2023-02-04T01:19:50;17.93;;;3.57;;
5555;SDS011;2801;50.972;7.856;2023-02-04T01:22:17;17.33;;;3.47;;
5555;SDS011;2801;50.972;7.856;2023-02-04T01:24:44;22.53;;;3.80;;
5555;SDS011;2801;50.972;7.856;2023-02-04T01:27:11;19.63;;;3.63;;
5555;SDS011;2801;50.972;7.856;2023-02-04T01:29:37;20.07;;;3.83;;
5555;SDS011;2801;50.972;7.856;2023-02-04T01:32:04;17.30;;;3.57;;
5555;SDS011;2801;50.972;7.856;2023-02-04T01:34:31;17.17;;;3.37;;
5555;SDS011;2801;50.972;7.856;2023-02-04T01:36:58;17.43;;;3.70;;
5555;SDS011;2801;50.972;7.856;2023-02-04T01:39:25;18.40;;;3.50;;
5555;SDS011;2801;50.972;7.856;2023-02-04T01:41:51;18.17;;;3.50;;
5555;SDS011;2801;50.972;7.856;2023-02-04T01:44:18;17.80;;;3.80;;
5555;SDS011;2801;50.972;7.856;2023-02-04T01:46:45;16.30;;;3.30;;
5555;SDS011;2801;50.972;7.856;2023-02-04T01:49:12;23.30;;;4.40;;
5555;SDS011;2801;50.972;7.856;2023-02-04T01:51:39;17.50;;;3.07;;
5555;SDS011;2801;50.972;7.856;2023-02-04T01:54:08;15.33;;;3.23;;
5555;SDS011;2801;50.972;7.856;2023-02-04T01:56:38;15.83;;;3.37;;
5555;SDS011;2801;50.972;7.856;2023-02-04T01:59:11;19.13;;;3.63;;
5555;SDS011;2801;50.972;7.856;2023-02-04T02:01:42;17.20;;;3.20;;
5555;SDS011;2801;50.972;7.856;2023-02-04T02:04:14;21.30;;;3.80;;
5555;SDS011;2801;50.972;7.856;2023-02-04T02:06:53;17.27;;;3.20;;
5555;SDS011;2801;50.972;7.856;2023-02-04T02:09:25;21.33;;;4.10;;
5555;SDS011;2801;50.972;7.856;2023-02-04T02:11:53;15.63;;;3.53;;
5555;SDS011;2801;50.972;7.856;2023-02-04T02:14:20;15.93;;;2.90;;
5555;SDS011;2801;50.972;7.856;2023-02-04T02:16:47;15.33;;;3.67;;
5555;SDS011;2801;50.972;7.856;2023-02-04T02:19:16;18.70;;;3.37;;
5555;SDS011;2801;50.972;7.856;2023-02-04T02:21:54;12.07;;;2.73;;
5555;SDS011;2801;50.972;7.856;2023-02-04T02:24:31;19.83;;;3.23;;
5555;SDS011;2801;50.972;7.856;2023-02-04T02:27:01;14.77;;;3.07;;
5555;SDS011;2801;50.972;7.856;2023-02-04T02:29:33;16.27;;;3.47;;
5555;SDS011;2801;50.972;7.856;2023-02-04T02:32:02;15.13;;;3.00;;
5555;SDS011;2801;50.972;7.856;2023-02-04T02:34:30;16.03;;;3.30;;
5555;SDS011;2801;50.972;7.856;2023-02-04T02:36:58;16.00;;;3.60;;
5555;SDS011;2801;50.972;7.856;2023-02-04T02:39:27;19.23;;;3.60;;
5555;SDS011;2801;50.972;7.856;2023-02-04T02:41:55;17.67;;;3.80;;
5555;SDS011;2801;50.972;7.856;2023-02-04T02:44:22;17.60;;;3.10;;
5555;SDS011;2801;50.972;7.856;2023-02-04T02:46:52;18.63;;;3.50;;
5555;SDS011;2801;50.972;7.856;2023-02-04T02:49:19;18.17;;;3.17;;
5555;SDS011;2801;50.972;7.856;2023-02-04T02:51:47;22.60;;;3.70;;
5555;SDS011;2801;50.972;7.856;2023-02-04T02:54:19;16.37;;;3.30;;
5555;SDS011;2801;50.972;7.856;2023-02-04T02:56:51;16.73;;;3.50;;
5555;SDS011;2801;50.972;7.856;2023-02-04T02:59:19;18.07;;;3.90;;
5555;SDS011;2801;50.972;7.856;2023-02-04T03:01:47;22.77;;;3.60;;
5555;SDS011;2801;50.972;7.856;2023-02-04T03:04:26;21.00;;;3.43;;
5555;SDS011;2801;50.972;7.856;2023-02-04T03:06:56;20.77;;;3.70;;
5555;SDS011;2801;50.972;7.856;2023-02-04T03:09:24;17.57;;;3.77;;
5555;SDS011;2801;50.972;7.856;2023-02-04T03:11:52;21.03;;;3.60;;
5555;SDS011;2801;50.972;7.856;2023-02-04T03:14:19;23.50;;;4.30;;
5555;SDS011;2801;50.972;7.856;2023-02-04T03:16:50;16.53;;;3.63;;
5555;SDS011;2801;50.972;7.856;2023-02-04T03:19:21;17.53;;;3.63;;
5555;SDS011;2801;50.972;7.856;2023-02-04T03:21:50;20.87;;;4.20;;
5555;SDS011;2801;50.972;7.856;2023-02-04T03:24:18;27.13;;;4.37;;
5555;SDS011;2801;50.972;7.856;2023-02-04T03:26:45;21.83;;;4.03;;
5555;SDS011;2801;50.972;7.856;2023-02-04T03:29:12;17.80;;;4.63;;
5555;SDS011;2801;50.972;7.856;2023-02-04T03:31:39;25.40;;;4.20;;
5555;SDS011;2801;50.972;7.856;2023-02-04T03:34:06;14.63;;;3.80;;
5555;SDS011;2801;50.972;7.856;2023-02-04T03:36:33;19.70;;;3.87;;
5555;SDS011;2801;50.972;7.856;2023-02-04T03:38:59;21.90;;;4.20;;
5555;SDS011;2801;50.972;7.856;2023-02-04T03:41:27;24.30;;;4.20;;
5555;SDS011;2801;50.972;7.856;2023-02-04T03:43:55;17.47;;;4.17;;
5555;SDS011;2801;50.972;7.856;2023-02-04T03:46:21;17.03;;;3.33;;
5555;SDS011;2801;50.972;7.856;2023-02-04T03:48:49;24.73;;;4.03;;
5555;SDS011;2801;50.972;7.856;2023-02-04T03:51:16;26.37;;;4.20;;
5555;SDS011;2801;50.972;7.856;2023-02-04T03:53:43;19.07;;;3.27;;
5555;SDS011;2801;50.972;7.856;2023-02-04T03:56:10;16.30;;;3.80;;
5555;SDS011;2801;50.972;7.856;2023-02-04T03:58:36;21.87;;;4.00;;
5555;SDS011;2801;50.972;7.856;2023-02-04T04:01:03;23.03;;;4.97;;
5555;SDS011;2801;50.972;7.856;2023-02-04T04:03:30;24.40;;;4.47;;
5555;SDS011;2801;50.972;7.856;2023-02-04T04:05:57;19.33;;;3.83;;
5555;SDS011;2801;50.972;7.856;2023-02-04T04:08:24;26.10;;;5.40;;
5555;SDS011;2801;50.972;7.856;2023-02-04T04:10:50;27.47;;;4.13;;
5555;SDS011;2801;50.972;7.856;2023-02-04T04:13:17;23.40;;;3.80;;
5555;SDS011;2801;50.972;7.856;2023-02-04T04:15:44;19.57;;;4.00;;
5555;SDS011;2801;50.972;7.856;2023-02-04T04:18:11;24.53;;;4.87;;
5555;SDS011;2801;50.972;7.856;2023-02-04T04:20:38;18.53;;;3.53;;
5555;SDS011;2801;50.972;7.856;2023-02-04T04:23:04;26.77;;;5.00;;
5555;SDS011;2801;50.972;7.856;2023-02-04T04:25:31;23.17;;;4.27;;
5555;SDS011;2801;50.972;7.856;2023-02-04T04:27:58;19.40;;;3.80;;
5555;SDS011;2801;50.972;7.856;2023-02-04T04:30:25;23.27;;;4.80;;
5555;SDS011;2801;50.972;7.856;2023-02-04T04:32:51;17.63;;;4.53;;
5555;SDS011;2801;50.972;7.856;2023-02-04T04:35:18;25.87;;;4.33;;
5555;SDS011;2801;50.972;7.856;2023-02-04T04:37:45;19.77;;;4.20;;
5555;SDS011;2801;50.972;7.856;2023-02-04T04:40:12;24.03;;;4.73;;
5555;SDS011;2801;50.972;7.856;2023-02-04T04:42:39;21.80;;;4.20;;
5555;SDS011;2801;50.972;7.856;2023-02-04T04:45:06;23.57;;;4.13;;
5555;SDS011;2801;50.972;7.856;2023-02-04T04:47:35;26.23;;;4.23;;
5555;SDS011;2801;50.972;7.856;2023-02-04T04:50:02;20.77;;;4.30;;
5555;SDS011;2801;50.972;7.856;2023-02-04T04:52:29;20.57;;;4.40;;
5555;SDS011;2801;50.972;7.856;2023-02-04T04:54:56;23.80;;;4.50;;
5555;SDS011;2801;50.972;7.856;2023-02-04T04:57:23;28.43;;;4.87;;
5555;SDS011;2801;50.972;7.856;2023-02-04T04:59:49;23.80;;;4.17;;
5555;SDS011;2801;50.972;7.856;2023-02-04T05:02:16;24.90;;;4.23;;
5555;SDS011;2801;50.972;7.856;2023-02-04T05:04:43;18.20;;;4.10;;
5555;SDS011;2801;50.972;7.856;2023-02-04T05:07:10;24.17;;;4.00;;
5555;SDS011;2801;50.972;7.856;2023-02-04T05:09:37;15.50;;;3.60;;
5555;SDS011;2801;50.972;7.856;2023-02-04T05:12:03;18.13;;;4.10;;
5555;SDS011;2801;50.972;7.856;2023-02-04T05:14:30;22.80;;;4.40;;
5555;SDS011;2801;50.972;7.856;2023-02-04T05:16:58;19.07;;;4.23;;
5555;SDS011;2801;50.972;7.856;2023-02-04T05:19:24;13.47;;;3.23;;
5555;SDS011;2801;50.972;7.856;2023-02-04T05:21:51;17.83;;;4.40;;
5555;SDS011;2801;50.972;7.856;2023-02-04T05:24:18;19.67;;;3.80;;
5555;SDS011;2801;50.972;7.856;2023-02-04T05:26:45;26.20;;;4.57;;
5555;SDS011;2801;50.972;7.856;2023-02-04T05:29:11;18.67;;;4.47;;
5555;SDS011;2801;50.972;7.856;2023-02-04T05:31:38;20.50;;;4.20;;
5555;SDS011;2801;50.972;7.856;2023-02-04T05:34:05;17.60;;;4.40;;
5555;SDS011;2801;50.972;7.856;2023-02-04T05:36:32;27.93;;;4.80;;
5555;SDS011;2801;50.972;7.856;2023-02-04T05:38:59;18.60;;;4.00;;
5555;SDS011;2801;50.972;7.856;2023-02-04T05:41:26;24.93;;;4.53;;
5555;SDS011;2801;50.972;7.856;2023-02-04T05:43:53;21.47;;;3.73;;
5555;SDS011;2801;50.972;7.856;2023-02-04T05:46:20;17.87;;;4.07;;
5555;SDS011;2801;50.972;7.856;2023-02-04T05:48:46;22.83;;;3.87;;
5555;SDS011;2801;50.972;7.856;2023-02-04T05:51:13;17.17;;;3.77;;
5555;SDS011;2801;50.972;7.856;2023-02-04T05:53:40;18.87;;;3.90;;
5555;SDS011;2801;50.972;7.856;2023-02-04T05:56:07;15.07;;;3.97;;
5555;SDS011;2801;50.972;7.856;2023-02-04T05:58:34;22.30;;;4.17;;
5555;SDS011;2801;50.972;7.856;2023-02-04T06:01:01;26.03;;;4.33;;
5555;SDS011;2801;50.972;7.856;2023-02-04T06:03:29;19.77;;;3.97;;
5555;SDS011;2801;50.972;7.856;2023-02-04T06:05:56;16.87;;;3.60;;
5555;SDS011;2801;50.972;7.856;2023-02-04T06:08:23;12.83;;;3.60;;
5555;SDS011;2801;50.972;7.856;2023-02-04T06:10:50;15.40;;;3.93;;
5555;SDS011;2801;50.972;7.856;2023-02-04T06:13:17;20.47;;;3.57;;
5555;SDS011;2801;50.972;7.856;2023-02-04T06:15:43;20.77;;;4.80;;
5555;SDS011;2801;50.972;7.856;2023-02-04T06:18:10;15.10;;;3.57;;
5555;SDS011;2801;50.972;7.856;2023-02-04T06:20:37;22.60;;;4.00;;
5555;SDS011;2801;50.972;7.856;2023-02-04T06:23:04;20.63;;;4.23;;
5555;SDS011;2801;50.972;7.856;2023-02-04T06:25:31;21.97;;;4.30;;
5555;SDS011;2801;50.972;7.856;2023-02-04T06:27:57;23.60;;;5.67;;
5555;SDS011;2801;50.972;7.856;2023-02-04T06:30:24;23.77;;;5.53;;
5555;SDS011;2801;50.972;7.856;2023-02-04T06:32:51;22.50;;;4.87;;
5555;SDS011;2801;50.972;7.856;2023-02-04T06:35:18;23.57;;;5.23;;
5555;SDS011;2801;50.972;7.856;2023-02-04T06:37:45;18.47;;;4.70;;
5555;SDS011;2801;50.972;7.856;2023-02-04T06:40:12;19.57;;;4.63;;
5555;SDS011;2801;50.972;7.856;2023-02-04T06:42:39;24.77;;;4.50;;
5555;SDS011;2801;50.972;7.856;2023-02-04T06:45:06;26.23;;;4.80;;
5555;SDS011;2801;50.972;7.856;2023-02-04T06:47:33;24.17;;;5.17;;
5555;SDS011;2801;50.972;7.856;2023-02-04T06:50:00;25.93;;;5.10;;
5555;SDS011;2801;50.972;7.856;2023-02-04T06:52:27;24.20;;;4.47;;
5555;SDS011;2801;50.972;7.856;2023-02-04T06:54:53;17.97;;;4.07;;
5555;SDS011;2801;50.972;7.856;2023-02-04T06:57:20;19.50;;;4.27;;
5555;SDS011;2801;50.972;7.856;2023-02-04T06:59:47;23.00;;;5.00;;
5555;SDS011;2801;50.972;7.856;2023-02-04T07:02:14;22.20;;;4.63;;
5555;SDS011;2801;50.972;7.856;2023-02-04T07:04:41;21.73;;;4.50;;
5555;SDS011;2801;50.972;7.856;2023-02-04T07:07:09;17.67;;;4.07;;
5555;SDS011;2801;50.972;7.856;2023-02-04T07:09:37;30.97;;;5.27;;
5555;SDS011;2801;50.972;7.856;2023-02-04T07:12:05;18.87;;;4.77;;
5555;SDS011;2801;50.972;7.856;2023-02-04T07:14:32;20.33;;;5.67;;
5555;SDS011;2801;50.972;7.856;2023-02-04T07:16:59;24.47;;;5.20;;
5555;SDS011;2801;50.972;7.856;2023-02-04T07:19:26;18.97;;;4.53;;
5555;SDS011;2801;50.972;7.856;2023-02-04T07:21:53;17.50;;;4.23;;
5555;SDS011;2801;50.972;7.856;2023-02-04T07:24:22;20.30;;;4.37;;
5555;SDS011;2801;50.972;7.856;2023-02-04T07:26:49;26.67;;;5.37;;
5555;SDS011;2801;50.972;7.856;2023-02-04T07:29:16;24.87;;;4.80;;
5555;SDS011;2801;50.972;7.856;2023-02-04T07:31:51;24.47;;;5.47;;
5555;SDS011;2801;50.972;7.856;2023-02-04T07:34:18;25.20;;;4.90;;
5555;SDS011;2801;50.972;7.856;2023-02-04T07:36:46;26.93;;;4.47;;
5555;SDS011;2801;50.972;7.856;2023-02-04T07:39:13;16.50;;;4.10;;
5555;SDS011;2801;50.972;7.856;2023-02-04T07:41:40;16.20;;;4.03;;
5555;SDS011;2801;50.972;7.856;2023-02-04T07:44:07;22.87;;;5.30;;
5555;SDS011;2801;50.972;7.856;2023-02-04T07:46:34;18.73;;;4.40;;
5555;SDS011;2801;50.972;7.856;2023-02-04T07:49:13;21.27;;;4.83;;
5555;SDS011;2801;50.972;7.856;2023-02-04T07:51:40;23.70;;;4.57;;
5555;SDS011;2801;50.972;7.856;2023-02-04T07:54:07;24.23;;;5.00;;
5555;SDS011;2801;50.972;7.856;2023-02-04T07:56:34;25.17;;;5.07;;
5555;SDS011;2801;50.972;7.856;2023-02-04T07:59:01;21.63;;;4.33;;
5555;SDS011;2801;50.972;7.856;2023-02-04T08:01:28;24.33;;;4.87;;
5555;SDS011;2801;50.972;7.856;2023-02-04T08:03:55;16.47;;;4.40;;
5555;SDS011;2801;50.972;7.856;2023-02-04T08:06:21;22.03;;;5.03;;
5555;SDS011;2801;50.972;7.856;2023-02-04T08:08:48;25.17;;;4.77;;
5555;SDS011;2801;50.972;7.856;2023-02-04T08:11:15;22.17;;;6.13;;
5555;SDS011;2801;50.972;7.856;2023-02-04T08:13:42;25.40;;;7.00;;
5555;SDS011;2801;50.972;7.856;2023-02-04T08:16:08;32.83;;;7.20;;
5555;SDS011;2801;50.972;7.856;2023-02-04T08:18:37;26.43;;;7.07;;
5555;SDS011;2801;50.972;7.856;2023-02-04T08:21:04;32.33;;;7.47;;
5555;SDS011;2801;50.972;7.856;2023-02-04T08:23:31;31.23;;;7.57;;
5555;SDS011;2801;50.972;7.856;2023-02-04T08:25:58;18.10;;;5.40;;
5555;SDS011;2801;50.972;7.856;2023-02-04T08:28:25;27.60;;;7.07;;
5555;SDS011;2801;50.972;7.856;2023-02-04T08:30:52;30.37;;;8.27;;
5555;SDS011;2801;50.972;7.856;2023-02-04T08:33:19;20.17;;;6.00;;
5555;SDS011;2801;50.972;7.856;2023-02-04T08:35:47;24.30;;;6.30;;
5555;SDS011;2801;50.972;7.856;2023-02-04T08:38:14;26.03;;;5.97;;
5555;SDS011;2801;50.972;7.856;2023-02-04T08:40:41;22.47;;;6.70;;
5555;SDS011;2801;50.972;7.856;2023-02-04T08:43:07;19.40;;;5.43;;
5555;SDS011;2801;50.972;7.856;2023-02-04T08:45:35;24.63;;;6.07;;
5555;SDS011;2801;50.972;7.856;2023-02-04T08:48:02;22.50;;;5.40;;
5555;SDS011;2801;50.972;7.856;2023-02-04T08:50:29;23.67;;;7.20;;
5555;SDS011;2801;50.972;7.856;2023-02-04T08:52:56;25.73;;;7.90;;
5555;SDS011;2801;50.972;7.856;2023-02-04T08:55:23;22.23;;;5.03;;
5555;SDS011;2801;50.972;7.856;2023-02-04T08:57:50;21.10;;;4.80;;
5555;SDS011;2801;50.972;7.856;2023-02-04T09:00:17;18.90;;;5.50;;
5555;SDS011;2801;50.972;7.856;2023-02-04T09:02:44;22.60;;;6.17;;
5555;SDS011;2801;50.972;7.856;2023-02-04T09:05:11;23.87;;;5.27;;
5555;SDS011;2801;50.972;7.856;2023-02-04T09:07:37;19.10;;;5.03;;
5555;SDS011;2801;50.972;7.856;2023-02-04T09:10:04;19.50;;;5.27;;
5555;SDS011;2801;50.972;7.856;2023-02-04T09:12:32;18.33;;;4.97;;
5555;SDS011;2801;50.972;7.856;2023-02-04T09:14:59;15.40;;;5.00;;
5555;SDS011;2801;50.972;7.856;2023-02-04T09:17:26;17.67;;;5.77;;
5555;SDS011;2801;50.972;7.856;2023-02-04T09:19:52;31.20;;;5.33;;
5555;SDS011;2801;50.972;7.856;2023-02-04T09:22:19;21.80;;;4.40;;
5555;SDS011;2801;50.972;7.856;2023-02-04T09:24:46;26.40;;;5.23;;
5555;SDS011;2801;50.972;7.856;2023-02-04T09:27:13;22.33;;;5.00;;
5555;SDS011;2801;50.972;7.856;2023-02-04T09:29:39;21.33;;;4.53;;
5555;SDS011;2801;50.972;7.856;2023-02-04T09:32:06;23.37;;;5.50;;
5555;SDS011;2801;50.972;7.856;2023-02-04T09:34:33;23.77;;;5.10;;
5555;SDS011;2801;50.972;7.856;2023-02-04T09:37:00;19.53;;;5.27;;
5555;SDS011;2801;50.972;7.856;2023-02-04T09:39:27;29.33;;;5.10;;
5555;SDS011;2801;50.972;7.856;2023-02-04T09:41:54;24.37;;;5.23;;
5555;SDS011;2801;50.972;7.856;2023-02-04T09:44:22;16.77;;;4.57;;
5555;SDS011;2801;50.972;7.856;2023-02-04T09:46:53;21.73;;;5.23;;
5555;SDS011;2801;50.972;7.856;2023-02-04T09:49:25;20.97;;;4.60;;
5555;SDS011;2801;50.972;7.856;2023-02-04T09:51:53;21.60;;;4.80;;
5555;SDS011;2801;50.972;7.856;2023-02-04T09:54:21;22.70;;;5.50;;
5555;SDS011;2801;50.972;7.856;2023-02-04T09:56:50;19.73;;;4.50;;
5555;SDS011;2801;50.972;7.856;2023-02-04T09:59:19;20.80;;;4.90;;
5555;SDS011;2801;50.972;7.856;2023-02-04T10:01:50;17.30;;;4.50;;
5555;SDS011;2801;50.972;7.856;2023-02-04T10:04:25;19.33;;;4.67;;
5555;SDS011;2801;50.972;7.856;2023-02-04T10:06:53;17.63;;;4.73;;
5555;SDS011;2801;50.972;7.856;2023-02-04T10:09:24;17.90;;;4.03;;
5555;SDS011;2801;50.972;7.856;2023-02-04T10:11:51;21.23;;;4.50;;
5555;SDS011;2801;50.972;7.856;2023-02-04T10:14:18;31.50;;;5.57;;
5555;SDS011;2801;50.972;7.856;2023-02-04T10:16:53;20.80;;;4.83;;
5555;SDS011;2801;50.972;7.856;2023-02-04T10:19:27;23.53;;;5.13;;
5555;SDS011;2801;50.972;7.856;2023-02-04T10:21:56;17.23;;;4.60;;
5555;SDS011;2801;50.972;7.856;2023-02-04T10:24:24;17.40;;;4.37;;
5555;SDS011;2801;50.972;7.856;2023-02-04T10:26:53;17.73;;;4.10;;
5555;SDS011;2801;50.972;7.856;2023-02-04T10:29:31;22.53;;;4.33;;
5555;SDS011;2801;50.972;7.856;2023-02-04T10:31:57;17.03;;;3.93;;
5555;SDS011;2801;50.972;7.856;2023-02-04T10:34:37;21.03;;;4.07;;
5555;SDS011;2801;50.972;7.856;2023-02-04T10:37:13;14.43;;;3.77;;
5555;SDS011;2801;50.972;7.856;2023-02-04T10:39:46;21.70;;;4.03;;
5555;SDS011;2801;50.972;7.856;2023-02-04T10:42:19;15.63;;;4.00;;
5555;SDS011;2801;50.972;7.856;2023-02-04T10:44:57;20.30;;;3.80;;
5555;SDS011;2801;50.972;7.856;2023-02-04T10:47:25;18.17;;;3.90;;
5555;SDS011;2801;50.972;7.856;2023-02-04T10:49:57;18.90;;;4.22;;
5555;SDS011;2801;50.972;7.856;2023-02-04T10:52:34;13.53;;;3.47;;
5555;SDS011;2801;50.972;7.856;2023-02-04T10:55:06;15.00;;;3.57;;
5555;SDS011;2801;50.972;7.856;2023-02-04T10:57:40;14.90;;;3.00;;
5555;SDS011;2801;50.972;7.856;2023-02-04T11:00:14;15.55;;;2.90;;
5555;SDS011;2801;50.972;7.856;2023-02-04T11:02:42;17.33;;;3.67;;
5555;SDS011;2801;50.972;7.856;2023-02-04T11:05:18;14.47;;;3.80;;
5555;SDS011;2801;50.972;7.856;2023-02-04T11:07:48;20.03;;;4.50;;
5555;SDS011;2801;50.972;7.856;2023-02-04T11:10:17;14.68;;;4.07;;
5555;SDS011;2801;50.972;7.856;2023-02-04T11:20:49;24.20;;;3.97;;
5555;SDS011;2801;50.972;7.856;2023-02-04T11:28:44;14.43;;;3.80;;
5555;SDS011;2801;50.972;7.856;2023-02-04T11:33:45;17.52;;;3.50;;
5555;SDS011;2801;50.972;7.856;2023-02-04T11:36:15;13.98;;;3.30;;
5555;SDS011;2801;50.972;7.856;2023-02-04T11:38:44;14.50;;;3.60;;
5555;SDS011;2801;50.972;7.856;2023-02-04T11:41:21;18.70;;;3.23;;
5555;SDS011;2801;50.972;7.856;2023-02-04T11:43:55;14.43;;;3.57;;
5555;SDS011;2801;50.972;7.856;2023-02-04T11:46:25;18.63;;;4.10;;
5555;SDS011;2801;50.972;7.856;2023-02-04T11:48:53;15.60;;;3.47;;
5555;SDS011;2801;50.972;7.856;2023-02-04T11:51:31;21.97;;;3.87;;
5555;SDS011;2801;50.972;7.856;2023-02-04T11:53:59;19.87;;;3.80;;
5555;SDS011;2801;50.972;7.856;2023-02-04T11:56:27;24.90;;;4.67;;
5555;SDS011;2801;50.972;7.856;2023-02-04T11:58:55;21.03;;;5.00;;
5555;SDS011;2801;50.972;7.856;2023-02-04T12:01:24;20.70;;;4.87;;
5555;SDS011;2801;50.972;7.856;2023-02-04T12:03:58;22.07;;;5.57;;
5555;SDS011;2801;50.972;7.856;2023-02-04T12:06:35;20.00;;;4.30;;
5555;SDS011;2801;50.972;7.856;2023-02-04T12:11:50;17.92;;;4.22;;
5555;SDS011;2801;50.972;7.856;2023-02-04T12:14:19;18.63;;;4.60;;
5555;SDS011;2801;50.972;7.856;2023-02-04T12:16:47;15.53;;;3.43;;
5555;SDS011;2801;50.972;7.856;2023-02-04T12:19:16;19.30;;;3.57;;
5555;SDS011;2801;50.972;7.856;2023-02-04T12:21:43;15.60;;;3.70;;
5555;SDS011;2801;50.972;7.856;2023-02-04T12:24:10;18.23;;;3.97;;
5555;SDS011;2801;50.972;7.856;2023-02-04T12:26:37;14.63;;;3.50;;
5555;SDS011;2801;50.972;7.856;2023-02-04T12:29:04;14.57;;;3.73;;
5555;SDS011;2801;50.972;7.856;2023-02-04T12:31:31;11.37;;;3.20;;
5555;SDS011;2801;50.972;7.856;2023-02-04T12:33:59;16.77;;;3.33;;
5555;SDS011;2801;50.972;7.856;2023-02-04T12:36:26;9.55;;;3.05;;
5555;SDS011;2801;50.972;7.856;2023-02-04T12:38:55;14.87;;;3.10;;
5555;SDS011;2801;50.972;7.856;2023-02-04T12:41:25;16.17;;;3.15;;
5555;SDS011;2801;50.972;7.856;2023-02-04T12:43:53;14.13;;;3.37;;
5555;SDS011;2801;50.972;7.856;2023-02-04T12:46:20;15.20;;;3.88;;
5555;SDS011;2801;50.972;7.856;2023-02-04T12:48:47;14.50;;;3.83;;
5555;SDS011;2801;50.972;7.856;2023-02-04T12:51:14;15.18;;;3.42;;
5555;SDS011;2801;50.972;7.856;2023-02-04T12:53:41;13.85;;;3.80;;
5555;SDS011;2801;50.972;7.856;2023-02-04T12:56:12;18.35;;;3.78;;
5555;SDS011;2801;50.972;7.856;2023-02-04T12:58:40;14.77;;;4.28;;
5555;SDS011;2801;50.972;7.856;2023-02-04T13:01:07;15.60;;;3.58;;
5555;SDS011;2801;50.972;7.856;2023-02-04T13:03:34;14.23;;;4.07;;
5555;SDS011;2801;50.972;7.856;2023-02-04T13:06:01;14.82;;;3.95;;
5555;SDS011;2801;50.972;7.856;2023-02-04T13:08:28;13.52;;;4.07;;
5555;SDS011;2801;50.972;7.856;2023-02-04T13:10:55;20.33;;;4.00;;
5555;SDS011;2801;50.972;7.856;2023-02-04T13:13:21;13.60;;;4.17;;
5555;SDS011;2801;50.972;7.856;2023-02-04T13:15:48;16.70;;;3.45;;
5555;SDS011;2801;50.972;7.856;2023-02-04T13:18:15;14.65;;;3.50;;
5555;SDS011;2801;50.972;7.856;2023-02-04T13:20:43;14.45;;;3.63;;
5555;SDS011;2801;50.972;7.856;2023-02-04T13:23:11;20.33;;;3.92;;
5555;SDS011;2801;50.972;7.856;2023-02-04T13:25:39;14.13;;;3.58;;
5555;SDS011;2801;50.972;7.856;2023-02-04T13:28:06;12.25;;;3.95;;
5555;SDS011;2801;50.972;7.856;2023-02-04T13:30:32;14.50;;;3.67;;
5555;SDS011;2801;50.972;7.856;2023-02-04T13:32:59;16.17;;;4.70;;
5555;SDS011;2801;50.972;7.856;2023-02-04T13:35:26;20.17;;;4.10;;
5555;SDS011;2801;50.972;7.856;2023-02-04T13:37:53;13.75;;;3.38;;
5555;SDS011;2801;50.972;7.856;2023-02-04T13:40:21;16.17;;;4.40;;
5555;SDS011;2801;50.972;7.856;2023-02-04T13:42:48;15.30;;;3.72;;
5555;SDS011;2801;50.972;7.856;2023-02-04T13:45:15;18.10;;;3.70;;
5555;SDS011;2801;50.972;7.856;2023-02-04T13:47:44;18.92;;;4.25;;
5555;SDS011;2801;50.972;7.856;2023-02-04T13:50:13;8.75;;;3.90;;
5555;SDS011;2801;50.972;7.856;2023-02-04T13:52:41;20.92;;;3.58;;
5555;SDS011;2801;50.972;7.856;2023-02-04T13:55:08;18.15;;;4.18;;
5555;SDS011;2801;50.972;7.856;2023-02-04T13:57:35;13.00;;;3.72;;
5555;SDS011;2801;50.972;7.856;2023-02-04T14:00:05;26.83;;;6.63;;
5555;SDS011;2801;50.972;7.856;2023-02-04T14:02:33;17.50;;;4.33;;
5555;SDS011;2801;50.972;7.856;2023-02-04T14:05:00;18.55;;;4.82;;
5555;SDS011;2801;50.972;7.856;2023-02-04T14:07:27;13.70;;;4.63;;
5555;SDS011;2801;50.972;7.856;2023-02-04T14:09:55;18.15;;;4.20;;
5555;SDS011;2801;50.972;7.856;2023-02-04T14:12:22;16.60;;;4.37;;
5555;SDS011;2801;50.972;7.856;2023-02-04T14:14:49;23.10;;;4.60;;
5555;SDS011;2801;50.972;7.856;2023-02-04T14:17:16;16.27;;;3.70;;
5555;SDS011;2801;50.972;7.856;2023-02-04T14:19:43;12.47;;;4.20;;
5555;SDS011;2801;50.972;7.856;2023-02-04T14:22:10;20.20;;;7.13;;
5555;SDS011;2801;50.972;7.856;2023-02-04T14:24:38;17.20;;;5.28;;
5555;SDS011;2801;50.972;7.856;2023-02-04T14:27:08;19.90;;;5.13;;
5555;SDS011;2801;50.972;7.856;2023-02-04T14:29:35;16.80;;;4.43;;
5555;SDS011;2801;50.972;7.856;2023-02-04T14:32:02;18.17;;;4.87;;
5555;SDS011;2801;50.972;7.856;2023-02-04T14:34:30;13.10;;;3.65;;
5555;SDS011;2801;50.972;7.856;2023-02-04T14:36:57;15.77;;;4.43;;
5555;SDS011;2801;50.972;7.856;2023-02-04T14:39:23;13.93;;;4.90;;
5555;SDS011;2801;50.972;7.856;2023-02-04T14:41:50;14.93;;;4.47;;
5555;SDS011;2801;50.972;7.856;2023-02-04T14:44:17;14.25;;;4.18;;
5555;SDS011;2801;50.972;7.856;2023-02-04T14:46:46;12.73;;;3.63;;
5555;SDS011;2801;50.972;7.856;2023-02-04T14:49:14;17.13;;;4.32;;
5555;SDS011;2801;50.972;7.856;2023-02-04T14:51:42;17.43;;;4.80;;
5555;SDS011;2801;50.972;7.856;2023-02-04T14:54:09;20.50;;;5.38;;
5555;SDS011;2801;50.972;7.856;2023-02-04T14:56:36;15.02;;;5.18;;
5555;SDS011;2801;50.972;7.856;2023-02-04T14:59:03;17.97;;;4.10;;
5555;SDS011;2801;50.972;7.856;2023-02-04T15:01:30;14.73;;;5.60;;
5555;SDS011;2801;50.972;7.856;2023-02-04T15:03:57;12.73;;;5.25;;
5555;SDS011;2801;50.972;7.856;2023-02-04T15:06:24;16.17;;;4.47;;
5555;SDS011;2801;50.972;7.856;2023-02-04T15:08:51;26.70;;;10.93;;
5555;SDS011;2801;50.972;7.856;2023-02-04T15:11:18;14.93;;;5.32;;
5555;SDS011;2801;50.972;7.856;2023-02-04T15:13:45;12.23;;;4.00;;
5555;SDS011;2801;50.972;7.856;2023-02-04T15:16:12;14.02;;;5.18;;
5555;SDS011;2801;50.972;7.856;2023-02-04T15:18:40;19.50;;;4.53;;
5555;SDS011;2801;50.972;7.856;2023-02-04T15:21:07;20.92;;;5.07;;
5555;SDS011;2801;50.972;7.856;2023-02-04T15:23:34;13.80;;;4.77;;
5555;SDS011;2801;50.972;7.856;2023-02-04T15:26:01;9.77;;;3.15;;